地図

経路データ

SID SEASON NUMBER BASIN SUBBASIN NAME ISO_TIME NATURE LAT LON WMO_WIND WMO_PRES WMO_AGENCY TRACK_TYPE DIST2LAND LANDFALL IFLAG USA_AGENCY USA_ATCF_ID USA_LAT USA_LON USA_RECORD USA_STATUS USA_WIND USA_PRES USA_SSHS USA_R34_NE USA_R34_SE USA_R34_SW USA_R34_NW USA_R50_NE USA_R50_SE USA_R50_SW USA_R50_NW USA_R64_NE USA_R64_SE USA_R64_SW USA_R64_NW USA_POCI USA_ROCI USA_RMW USA_EYE TOKYO_LAT TOKYO_LON TOKYO_GRADE TOKYO_WIND TOKYO_PRES TOKYO_R50_DIR TOKYO_R50_LONG TOKYO_R50_SHORT TOKYO_R30_DIR TOKYO_R30_LONG TOKYO_R30_SHORT TOKYO_LAND CMA_LAT CMA_LON CMA_CAT CMA_WIND CMA_PRES HKO_LAT HKO_LON HKO_CAT HKO_WIND HKO_PRES NEWDELHI_LAT NEWDELHI_LON NEWDELHI_GRADE NEWDELHI_WIND NEWDELHI_PRES NEWDELHI_CI NEWDELHI_DP NEWDELHI_POCI REUNION_LAT REUNION_LON REUNION_TYPE REUNION_WIND REUNION_PRES REUNION_TNUM REUNION_CI REUNION_RMW REUNION_R34_NE REUNION_R34_SE REUNION_R34_SW REUNION_R34_NW REUNION_R50_NE REUNION_R50_SE REUNION_R50_SW REUNION_R50_NW REUNION_R64_NE REUNION_R64_SE REUNION_R64_SW REUNION_R64_NW BOM_LAT BOM_LON BOM_TYPE BOM_WIND BOM_PRES BOM_TNUM BOM_CI BOM_RMW BOM_R34_NE BOM_R34_SE BOM_R34_SW BOM_R34_NW BOM_R50_NE BOM_R50_SE BOM_R50_SW BOM_R50_NW BOM_R64_NE BOM_R64_SE BOM_R64_SW BOM_R64_NW BOM_ROCI BOM_POCI BOM_EYE BOM_POS_METHOD BOM_PRES_METHOD NADI_LAT NADI_LON NADI_CAT NADI_WIND NADI_PRES WELLINGTON_LAT WELLINGTON_LON WELLINGTON_WIND WELLINGTON_PRES DS824_LAT DS824_LON DS824_STAGE DS824_WIND DS824_PRES TD9636_LAT TD9636_LON TD9636_STAGE TD9636_WIND TD9636_PRES TD9635_LAT TD9635_LON TD9635_WIND TD9635_PRES TD9635_ROCI NEUMANN_LAT NEUMANN_LON NEUMANN_CLASS NEUMANN_WIND NEUMANN_PRES MLC_LAT MLC_LON MLC_CLASS MLC_WIND MLC_PRES USA_GUST BOM_GUST BOM_GUST_PER REUNION_GUST REUNION_GUST_PER USA_SEAHGT USA_SEARAD_NE USA_SEARAD_SE USA_SEARAD_SW USA_SEARAD_NW STORM_SPEED STORM_DIR
1918213N13302 1918 44 NA NA NOT_NAMED 1918-08-01 00:00:00 TS 12.6000 -58.5000 35 hurdat_atl main 345 283 O_____________ hurdat_atl AL011918 12.6000 -58.5000 TS 35 0 18 276
1918213N13302 1918 44 NA CS NOT_NAMED 1918-08-01 03:00:00 TS 12.7007 -59.4124 main 283 247 P_____________ AL011918 12.7007 -59.4124 TS 35 0 18 276
1918213N13302 1918 44 NA CS NOT_NAMED 1918-08-01 06:00:00 TS 12.8000 -60.3000 35 hurdat_atl main 247 237 O_____________ hurdat_atl AL011918 12.8000 -60.3000 TS 35 0 17 277
1918213N13302 1918 44 NA CS NOT_NAMED 1918-08-01 09:00:00 TS 12.8996 -61.1501 main 246 246 P_____________ AL011918 12.8996 -61.1501 TS 35 0 17 277
1918213N13302 1918 44 NA CS NOT_NAMED 1918-08-01 12:00:00 TS 13.0000 -62.0000 35 hurdat_atl main 258 257 O_____________ hurdat_atl AL011918 13.0000 -62.0000 TS 35 0 17 277
1918213N13302 1918 44 NA CS NOT_NAMED 1918-08-01 15:00:00 TS 13.0998 -62.9001 main 268 268 P_____________ AL011918 13.0998 -62.9001 TS 35 0 18 277
1918213N13302 1918 44 NA CS NOT_NAMED 1918-08-01 18:00:00 TS 13.2000 -63.8000 35 hurdat_atl main 290 290 O_____________ hurdat_atl AL011918 13.2000 -63.8000 TS 35 0 17 276
1918213N13302 1918 44 NA CS NOT_NAMED 1918-08-01 21:00:00 TS 13.2921 -64.6502 main 307 307 P_____________ AL011918 13.2921 -64.6502 TS 35 0 17 277
1918213N13302 1918 44 NA CS NOT_NAMED 1918-08-02 00:00:00 TS 13.4000 -65.5000 35 hurdat_atl main 318 314 O_____________ hurdat_atl AL011918 13.4000 -65.5000 TS 35 0 17 278
1918213N13302 1918 44 NA CS NOT_NAMED 1918-08-02 03:00:00 TS 13.5423 -66.4000 main 324 303 P_____________ AL011918 13.5423 -66.4000 TS 37 0 18 280
1918213N13302 1918 44 NA CS NOT_NAMED 1918-08-02 06:00:00 TS 13.7000 -67.3000 40 hurdat_atl main 303 272 O_____________ hurdat_atl AL011918 13.7000 -67.3000 TS 40 0 17 280
1918213N13302 1918 44 NA CS NOT_NAMED 1918-08-02 09:00:00 TS 13.8421 -68.1502 main 264 234 P_____________ AL011918 13.8421 -68.1502 TS 40 0 17 280
1918213N13302 1918 44 NA CS NOT_NAMED 1918-08-02 12:00:00 TS 14.0000 -69.0000 40 hurdat_atl main 234 224 O_____________ hurdat_atl AL011918 14.0000 -69.0000 TS 40 0 17 281
1918213N13302 1918 44 NA CS NOT_NAMED 1918-08-02 15:00:00 TS 14.1848 -69.9001 main 235 233 P_____________ AL011918 14.1848 -69.9001 TS 40 0 18 283
1918213N13302 1918 44 NA CS NOT_NAMED 1918-08-02 18:00:00 TS 14.4000 -70.8000 40 hurdat_atl main 236 233 O_____________ hurdat_atl AL011918 14.4000 -70.8000 TS 40 0 18 285
1918213N13302 1918 44 NA CS NOT_NAMED 1918-08-02 21:00:00 TS 14.6420 -71.6502 main 246 246 P_____________ AL011918 14.6420 -71.6502 TS 42 0 17 287
1918213N13302 1918 44 NA CS NOT_NAMED 1918-08-03 00:00:00 TS 14.9000 -72.5000 45 hurdat_atl main 292 292 O_____________ hurdat_atl AL011918 14.9000 -72.5000 TS 45 0 18 286
1918213N13302 1918 44 NA CS NOT_NAMED 1918-08-03 03:00:00 TS 15.1423 -73.4003 main 327 292 P_____________ AL011918 15.1423 -73.4003 TS 45 0 18 286
1918213N13302 1918 44 NA CS NOT_NAMED 1918-08-03 06:00:00 TS 15.4000 -74.3000 45 hurdat_atl main 294 272 O_____________ hurdat_atl AL011918 15.4000 -74.3000 TS 45 0 18 287
1918213N13302 1918 44 NA CS NOT_NAMED 1918-08-03 09:00:00 TS 15.6772 -75.1653 main 268 213 P_____________ AL011918 15.6772 -75.1653 TS 45 0 17 290
1918213N13302 1918 44 NA CS NOT_NAMED 1918-08-03 12:00:00 TS 16.0000 -76.0000 45 hurdat_atl main 213 151 O_____________ hurdat_atl AL011918 16.0000 -76.0000 TS 45 0 17 294
1918213N13302 1918 44 NA CS NOT_NAMED 1918-08-03 15:00:00 TS 16.3770 -76.8003 main 151 105 P_____________ AL011918 16.3770 -76.8003 TS 47 0 17 298
1918213N13302 1918 44 NA CS NOT_NAMED 1918-08-03 18:00:00 TS 16.8000 -77.6000 50 hurdat_atl main 109 99 O_____________ hurdat_atl AL011918 16.8000 -77.6000 TS 50 0 18 299
1918213N13302 1918 44 NA CS NOT_NAMED 1918-08-03 21:00:00 TS 17.2423 -78.4502 main 112 94 P_____________ AL011918 17.2423 -78.4502 TS 50 0 19 299
1918213N13302 1918 44 NA CS NOT_NAMED 1918-08-04 00:00:00 TS 17.7000 -79.3000 50 hurdat_atl main 110 110 O_____________ hurdat_atl AL011918 17.7000 -79.3000 TS 50 0 18 300
1918213N13302 1918 44 NA CS NOT_NAMED 1918-08-04 03:00:00 TS 18.1496 -80.1080 main 179 179 P_____________ AL011918 18.1496 -80.1080 TS 50 0 18 301
1918213N13302 1918 44 NA CS NOT_NAMED 1918-08-04 06:00:00 TS 18.6000 -80.9000 50 hurdat_atl main 267 267 O_____________ hurdat_atl AL011918 18.6000 -80.9000 TS 50 0 18 300
1918213N13302 1918 44 NA CS NOT_NAMED 1918-08-04 09:00:00 TS 19.0422 -81.7080 main 291 214 P_____________ AL011918 19.0422 -81.7080 TS 52 0 18 301
1918213N13302 1918 44 NA CS NOT_NAMED 1918-08-04 12:00:00 TS 19.5000 -82.5000 55 hurdat_atl main 214 161 O_____________ hurdat_atl AL011918 19.5000 -82.5000 TS 55 0 17 303
1918213N13302 1918 44 NA CS NOT_NAMED 1918-08-04 15:00:00 TS 19.9921 -83.2579 main 164 148 P_____________ AL011918 19.9921 -83.2579 TS 55 0 17 305
1918213N13302 1918 44 NA CS NOT_NAMED 1918-08-04 18:00:00 TS 20.5000 -84.0000 55 hurdat_atl main 152 90 O_____________ hurdat_atl AL011918 20.5000 -84.0000 TS 55 0 17 306
1918213N13302 1918 44 NA CS NOT_NAMED 1918-08-04 21:00:00 TS 20.9998 -84.7579 main 89 63 P_____________ AL011918 20.9998 -84.7579 TS 55 0 17 306
1918213N13302 1918 44 NA CS NOT_NAMED 1918-08-05 00:00:00 TS 21.5000 -85.5000 55 hurdat_atl main 68 68 O_____________ hurdat_atl AL011918 21.5000 -85.5000 TS 55 0 17 307
1918213N13302 1918 44 NA GM NOT_NAMED 1918-08-05 03:00:00 TS 21.9996 -86.2081 main 98 91 P_____________ AL011918 21.9996 -86.2081 TS 57 0 16 308
1918213N13302 1918 44 NA GM NOT_NAMED 1918-08-05 06:00:00 TS 22.5000 -86.9000 60 hurdat_atl main 112 112 O_____________ hurdat_atl AL011918 22.5000 -86.9000 TS 60 0 16 307
1918213N13302 1918 44 NA GM NOT_NAMED 1918-08-05 09:00:00 TS 22.9925 -87.6228 main 168 167 P_____________ AL011918 22.9925 -87.6228 TS 65 1 16 308
1918213N13302 1918 44 NA GM NOT_NAMED 1918-08-05 12:00:00 TS 23.5000 -88.3000 70 hurdat_atl main 223 223 O_____________ hurdat_atl AL011918 23.5000 -88.3000 HU 70 1 16 312
1918213N13302 1918 44 NA GM NOT_NAMED 1918-08-05 15:00:00 TS 24.0346 -88.8806 main 281 281 P_____________ AL011918 24.0346 -88.8806 HU 75 1 15 318
1918213N13302 1918 44 NA GM NOT_NAMED 1918-08-05 18:00:00 TS 24.6000 -89.4000 80 hurdat_atl main 356 356 O_____________ hurdat_atl AL011918 24.6000 -89.4000 HU 80 1 15 321
1918213N13302 1918 44 NA GM NOT_NAMED 1918-08-05 21:00:00 TS 25.1848 -89.9081 main 431 369 P_____________ AL011918 25.1848 -89.9081 HU 85 2 15 323
1918213N13302 1918 44 NA GM NOT_NAMED 1918-08-06 00:00:00 TS 25.8000 -90.4000 90 hurdat_atl main 369 301 O_____________ hurdat_atl AL011918 25.8000 -90.4000 HU 90 2 15 324
1918213N13302 1918 44 NA GM NOT_NAMED 1918-08-06 03:00:00 TS 26.4349 -90.9079 main 301 228 P_____________ AL011918 26.4349 -90.9079 HU 95 2 16 325
1918213N13302 1918 44 NA GM NOT_NAMED 1918-08-06 06:00:00 TS 27.1000 -91.4000 100 hurdat_atl main 228 169 O_____________ hurdat_atl AL011918 27.1000 -91.4000 HU 100 3 16 328
1918213N13302 1918 44 NA GM NOT_NAMED 1918-08-06 09:00:00 TS 27.7998 -91.8580 main 174 111 P_____________ AL011918 27.7998 -91.8580 HU 102 3 16 330
1918213N13302 1918 44 NA GM NOT_NAMED 1918-08-06 12:00:00 TS 28.5000 -92.3000 105 hurdat_atl main 111 56 O_____________ hurdat_atl AL011918 28.5000 -92.3000 HU 105 3 16 330
1918213N13302 1918 44 NA GM NOT_NAMED 1918-08-06 15:00:00 TS 29.1649 -92.7579 main 48 0 P_____________ AL011918 29.1649 -92.7579 HU 105 3 15 329
1918213N13302 1918 44 NA GM NOT_NAMED 1918-08-06 18:00:00 TS 29.8000 -93.2000 105 955 hurdat_atl main 0 0 O_____________ hurdat_atl AL011918 29.8000 -93.2000 L HU 105 955 3 15 329
1918213N13302 1918 44 NA NA NOT_NAMED 1918-08-06 21:00:00 TS 30.4074 -93.6229 main 0 0 P_____________ AL011918 30.4074 -93.6229 HU 82 1 14 330
1918213N13302 1918 44 NA NA NOT_NAMED 1918-08-07 00:00:00 TS 31.0000 -94.0000 60 hurdat_atl main 0 0 O_____________ hurdat_atl AL011918 31.0000 -94.0000 TS 60 0 13 333
1918213N13302 1918 44 NA NA NOT_NAMED 1918-08-07 03:00:00 TS 31.5774 -94.3305 main 0 0 P_____________ AL011918 31.5774 -94.3305 TS 52 0 13 337
1918213N13302 1918 44 NA NA NOT_NAMED 1918-08-07 06:00:00 TS 32.2000 -94.6000 45 hurdat_atl main 0 0 O_____________ hurdat_atl AL011918 32.2000 -94.6000 TS 45 0 14 342
1918213N13302 1918 44 NA NA NOT_NAMED 1918-08-07 09:00:00 TS 32.9050 -94.8302 main 0 0 P_____________ AL011918 32.9050 -94.8302 TS 40 0 15 347
1918213N13302 1918 44 NA NA NOT_NAMED 1918-08-07 12:00:00 TS 33.7000 -95.0000 35 hurdat_atl main 0 0 O_____________ hurdat_atl AL011918 33.7000 -95.0000 TS 35 0 17 352
1918213N13302 1918 44 NA NA NOT_NAMED 1918-08-07 15:00:00 TS 34.5775 -95.1148 main 0 0 P_____________ AL011918 34.5775 -95.1148 TS 32 -1 18 355
1918213N13302 1918 44 NA NA NOT_NAMED 1918-08-07 18:00:00 TS 35.5000 -95.2000 30 hurdat_atl main 0 O_____________ hurdat_atl AL011918 35.5000 -95.2000 TD 30 -1 19 356

IBTrACS Databaseについて

本データベースは、米国NOAAが公開する1842年以降の世界の熱帯低気圧のベストトラックデータアーカイブInternational Best Track Archive for Climate Stewardship (IBTrACS)を、ウェブで閲覧しやすい形式に変換したものです。

最終更新日:2021-11-26